createdAt,value
2022-11-08T00:00:16.893Z,0.00
2022-11-08T00:01:16.885Z,0.00
2022-11-08T00:02:17.047Z,0.00
2022-11-08T00:03:16.988Z,0.00
2022-11-08T00:04:16.861Z,0.00
2022-11-08T00:05:16.894Z,0.00
2022-11-08T00:06:16.841Z,0.00
2022-11-08T00:07:16.818Z,0.00
2022-11-08T00:08:17.107Z,0.00
2022-11-08T00:09:16.793Z,0.00
2022-11-08T00:10:16.786Z,0.00
2022-11-08T00:11:16.838Z,0.00
2022-11-08T00:12:16.782Z,0.00
2022-11-08T00:13:16.750Z,0.00
2022-11-08T00:14:16.744Z,0.00
2022-11-08T00:15:16.726Z,0.00
2022-11-08T00:16:16.718Z,0.00
2022-11-08T00:17:16.811Z,0.00
2022-11-08T00:18:17.096Z,0.00
2022-11-08T00:19:16.796Z,0.00
2022-11-08T00:20:16.675Z,0.00
2022-11-08T00:21:16.663Z,0.00
2022-11-08T00:22:16.654Z,0.00
2022-11-08T00:23:16.731Z,0.00
2022-11-08T00:24:16.630Z,0.00
2022-11-08T00:25:16.618Z,0.00
2022-11-08T00:26:16.610Z,0.00
2022-11-08T00:27:16.612Z,0.00
2022-11-08T00:28:17.027Z,0.00
2022-11-08T00:29:16.614Z,0.00
2022-11-08T00:30:16.607Z,0.00
2022-11-08T00:31:16.563Z,0.00
2022-11-08T00:32:16.552Z,0.00
2022-11-08T00:33:16.547Z,0.00
2022-11-08T00:34:16.532Z,0.00
2022-11-08T00:35:16.545Z,0.00
2022-11-08T00:36:16.509Z,0.00
2022-11-08T00:37:16.485Z,0.00
2022-11-08T00:38:16.886Z,0.00
2022-11-08T00:39:16.579Z,0.00
2022-11-08T00:40:16.455Z,0.00
2022-11-08T00:41:16.475Z,0.00
2022-11-08T00:42:16.437Z,0.00
2022-11-08T00:43:16.421Z,0.00
2022-11-08T00:44:16.412Z,0.00
2022-11-08T00:45:16.408Z,0.00
2022-11-08T00:46:16.393Z,0.00
2022-11-08T00:47:16.472Z,0.00
2022-11-08T00:48:16.815Z,0.00
2022-11-08T00:49:16.359Z,0.00
2022-11-08T00:50:16.365Z,0.00
2022-11-08T00:51:16.355Z,0.00
2022-11-08T00:52:16.323Z,0.00
2022-11-08T00:53:16.334Z,0.00
2022-11-08T00:54:16.313Z,0.00
2022-11-08T00:55:16.303Z,0.00
2022-11-08T00:56:16.307Z,0.00
2022-11-08T00:57:16.375Z,0.00
2022-11-08T00:58:16.477Z,0.00
2022-11-08T00:59:16.251Z,0.00
2022-11-08T01:00:16.259Z,0.00
2022-11-08T01:01:16.332Z,0.00
2022-11-08T01:02:16.269Z,0.00
2022-11-08T01:03:16.221Z,0.00
2022-11-08T01:04:16.192Z,0.00
2022-11-08T01:05:16.189Z,0.00
2022-11-08T01:06:16.173Z,0.00
2022-11-08T01:07:16.187Z,0.00
2022-11-08T01:08:16.588Z,0.00
2022-11-08T01:09:16.157Z,0.00
2022-11-08T01:10:16.127Z,0.00
2022-11-08T01:11:16.127Z,0.00
2022-11-08T01:12:16.106Z,0.00
2022-11-08T01:13:16.092Z,0.00
2022-11-08T01:14:16.084Z,0.00
2022-11-08T01:15:16.144Z,0.00
2022-11-08T01:16:16.060Z,0.00
2022-11-08T01:17:16.052Z,0.00
2022-11-08T01:18:16.559Z,0.00
2022-11-08T01:19:16.046Z,0.00
2022-11-08T01:20:16.018Z,0.00
2022-11-08T01:21:16.016Z,0.00
2022-11-08T01:22:15.994Z,0.00
2022-11-08T01:23:16.000Z,0.00
2022-11-08T01:24:15.973Z,0.00
2022-11-08T01:25:15.978Z,0.00
2022-11-08T01:26:15.955Z,0.00
2022-11-08T01:27:15.967Z,0.00
2022-11-08T01:28:16.334Z,0.00
2022-11-08T01:29:15.923Z,0.00
2022-11-08T01:30:15.907Z,0.00
2022-11-08T01:31:15.896Z,0.00
2022-11-08T01:32:16.019Z,0.00
2022-11-08T01:33:15.875Z,0.00
2022-11-08T01:34:15.864Z,0.00
2022-11-08T01:35:15.859Z,0.00
2022-11-08T01:36:15.860Z,0.00
2022-11-08T01:37:15.829Z,0.00
2022-11-08T01:38:16.338Z,0.00
2022-11-08T01:39:15.827Z,0.00
2022-11-08T01:40:15.798Z,0.00
2022-11-08T01:41:15.785Z,0.00
2022-11-08T01:42:15.788Z,0.00
2022-11-08T01:43:15.773Z,0.00
2022-11-08T01:44:15.770Z,0.00
2022-11-08T01:45:15.745Z,0.00
2022-11-08T01:46:15.731Z,0.00
2022-11-08T01:47:15.719Z,0.00
2022-11-08T01:48:16.190Z,0.00
2022-11-08T01:49:15.707Z,0.00
2022-11-08T01:50:15.702Z,0.00
2022-11-08T01:51:15.679Z,0.00
2022-11-08T01:52:15.664Z,0.00
2022-11-08T01:53:15.655Z,0.00
2022-11-08T01:54:15.644Z,0.00
2022-11-08T01:55:15.655Z,0.00
2022-11-08T01:56:15.642Z,0.00
2022-11-08T01:57:15.624Z,0.00
2022-11-08T01:58:15.983Z,0.00
2022-11-08T01:59:15.599Z,0.00
2022-11-08T02:00:15.577Z,0.00
2022-11-08T02:01:15.645Z,0.00
2022-11-08T02:02:15.628Z,0.00
2022-11-08T02:03:15.549Z,0.00
2022-11-08T02:04:15.540Z,0.00
2022-11-08T02:05:15.533Z,0.00
2022-11-08T02:06:15.542Z,0.00
2022-11-08T02:07:15.501Z,0.00
2022-11-08T02:08:15.778Z,0.00
2022-11-08T02:09:15.542Z,0.00
2022-11-08T02:10:15.478Z,0.00
2022-11-08T02:11:15.495Z,0.00
2022-11-08T02:12:15.460Z,0.00
2022-11-08T02:13:15.441Z,0.00
2022-11-08T02:14:15.463Z,0.00
2022-11-08T02:15:15.409Z,0.00
2022-11-08T02:16:15.400Z,0.00
2022-11-08T02:17:15.402Z,0.00
2022-11-08T02:18:15.871Z,0.00
2022-11-08T02:19:15.430Z,0.00
2022-11-08T02:20:15.355Z,0.00
2022-11-08T02:21:15.351Z,0.00
2022-11-08T02:22:15.334Z,0.00
2022-11-08T02:23:15.335Z,0.00
2022-11-08T02:24:15.312Z,0.00
2022-11-08T02:25:15.386Z,0.00
2022-11-08T02:26:15.293Z,0.00
2022-11-08T02:27:15.310Z,0.00
2022-11-08T02:28:15.556Z,0.00
2022-11-08T02:29:15.259Z,0.00
2022-11-08T02:30:15.247Z,0.00
2022-11-08T02:31:15.328Z,0.00
2022-11-08T02:32:15.227Z,0.00
2022-11-08T02:33:15.212Z,0.00
2022-11-08T02:34:15.204Z,0.00
2022-11-08T02:35:15.205Z,0.00
2022-11-08T02:36:15.185Z,0.00
2022-11-08T02:37:15.259Z,0.00
2022-11-08T02:38:15.486Z,0.00
2022-11-08T02:39:15.253Z,0.00
2022-11-08T02:40:15.141Z,0.00
2022-11-08T02:41:15.129Z,0.00
2022-11-08T02:42:15.117Z,0.00
2022-11-08T02:43:15.215Z,0.00
2022-11-08T02:44:15.095Z,0.00
2022-11-08T02:45:15.091Z,0.00
2022-11-08T02:46:15.075Z,0.00
2022-11-08T02:47:15.061Z,0.00
2022-11-08T02:48:15.393Z,0.00
2022-11-08T02:49:15.108Z,0.00
2022-11-08T02:50:15.030Z,0.00
2022-11-08T02:51:15.027Z,0.00
2022-11-08T02:52:15.006Z,0.00
2022-11-08T02:53:14.991Z,0.00
2022-11-08T02:54:14.983Z,0.00
2022-11-08T02:55:15.096Z,0.00
2022-11-08T02:56:14.973Z,0.00
2022-11-08T02:57:14.949Z,0.00
2022-11-08T02:58:15.181Z,0.00
2022-11-08T02:59:14.950Z,0.00
2022-11-08T03:00:14.917Z,0.00
2022-11-08T03:01:15.027Z,0.00
2022-11-08T03:02:15.014Z,0.00
2022-11-08T03:03:14.881Z,0.00
2022-11-08T03:04:14.875Z,0.00
2022-11-08T03:05:14.865Z,0.00
2022-11-08T03:06:14.851Z,0.00
2022-11-08T03:07:14.848Z,0.00
2022-11-08T03:08:15.306Z,0.00
2022-11-08T03:09:14.815Z,0.00
2022-11-08T03:10:14.805Z,0.00
2022-11-08T03:11:14.797Z,0.00
2022-11-08T03:12:14.787Z,0.00
2022-11-08T03:13:14.775Z,0.00
2022-11-08T03:14:14.882Z,0.00
2022-11-08T03:15:14.772Z,0.00
2022-11-08T03:16:14.740Z,0.00
2022-11-08T03:17:14.728Z,0.00
2022-11-08T03:18:14.942Z,0.00
2022-11-08T03:19:14.720Z,0.00
2022-11-08T03:20:14.786Z,0.00
2022-11-08T03:21:14.685Z,0.00
2022-11-08T03:22:14.675Z,0.00
2022-11-08T03:23:14.669Z,0.00
2022-11-08T03:24:14.660Z,0.00
2022-11-08T03:25:14.652Z,0.00
2022-11-08T03:26:14.710Z,0.00
2022-11-08T03:27:14.618Z,0.00
2022-11-08T03:28:18.025Z,0.00
2022-11-08T03:29:15.594Z,0.00
2022-11-08T03:30:14.587Z,0.00
2022-11-08T03:31:14.605Z,0.00
2022-11-08T03:32:14.633Z,0.00
2022-11-08T03:33:14.565Z,0.00
2022-11-08T03:34:14.542Z,0.00
2022-11-08T03:35:14.527Z,0.00
2022-11-08T03:36:14.520Z,0.00
2022-11-08T03:37:14.534Z,0.00
2022-11-08T03:38:14.557Z,0.00
2022-11-08T03:39:14.605Z,0.00
2022-11-08T03:40:14.476Z,0.00
2022-11-08T03:41:14.468Z,0.00
2022-11-08T03:42:14.458Z,0.00
2022-11-08T03:43:14.440Z,0.00
2022-11-08T03:44:14.431Z,0.00
2022-11-08T03:45:14.478Z,0.00
2022-11-08T03:46:14.422Z,0.00
2022-11-08T03:47:14.416Z,0.00
2022-11-08T03:48:14.412Z,0.00
2022-11-08T03:49:14.375Z,0.00
2022-11-08T03:50:14.390Z,0.00
2022-11-08T03:51:14.450Z,0.00
2022-11-08T03:52:14.343Z,0.00
2022-11-08T03:53:14.332Z,0.00
2022-11-08T03:54:14.325Z,0.00
2022-11-08T03:55:14.308Z,0.00
2022-11-08T03:56:14.432Z,0.00
2022-11-08T03:57:14.321Z,0.00
2022-11-08T03:58:14.435Z,0.00
2022-11-08T03:59:14.277Z,0.00
2022-11-08T04:00:14.270Z,0.00
2022-11-08T04:01:14.324Z,0.00
2022-11-08T04:02:14.410Z,0.00
2022-11-08T04:03:14.254Z,0.00
2022-11-08T04:04:14.231Z,0.00
2022-11-08T04:05:14.220Z,0.00
2022-11-08T04:06:14.233Z,0.00
2022-11-08T04:07:14.177Z,0.00
2022-11-08T04:08:14.246Z,0.00
2022-11-08T04:09:19.000Z,0.00
2022-11-08T04:10:15.144Z,0.00
2022-11-08T04:11:14.158Z,0.00
2022-11-08T04:12:14.133Z,0.00
2022-11-08T04:13:14.110Z,0.00
2022-11-08T04:14:14.104Z,0.00
2022-11-08T04:15:14.093Z,0.00
2022-11-08T04:16:17.853Z,0.00
2022-11-08T04:17:14.067Z,0.00
2022-11-08T04:18:14.085Z,0.00
2022-11-08T04:19:14.071Z,0.00
2022-11-08T04:20:14.036Z,0.00
2022-11-08T04:21:14.159Z,0.00
2022-11-08T04:22:14.014Z,0.00
2022-11-08T04:23:14.013Z,0.00
2022-11-08T04:24:14.027Z,0.00
2022-11-08T04:25:13.981Z,0.00
2022-11-08T04:26:13.971Z,0.00
2022-11-08T04:27:13.960Z,0.00
2022-11-08T04:28:13.950Z,0.00
2022-11-08T04:29:14.039Z,0.00
2022-11-08T04:30:13.923Z,0.00
2022-11-08T04:31:13.917Z,0.00
2022-11-08T04:32:13.904Z,0.00
2022-11-08T04:33:13.893Z,0.00
2022-11-08T04:34:13.891Z,0.00
2022-11-08T04:35:13.916Z,0.00
2022-11-08T04:36:13.867Z,0.00
2022-11-08T04:37:13.851Z,0.00
2022-11-08T04:38:13.849Z,0.00
2022-11-08T04:39:13.836Z,0.00
2022-11-08T04:40:13.816Z,0.00
2022-11-08T04:41:13.926Z,0.00
2022-11-08T04:42:13.793Z,0.00
2022-11-08T04:43:13.798Z,0.00
2022-11-08T04:44:13.771Z,0.00
2022-11-08T04:45:13.761Z,0.00
2022-11-08T04:46:13.748Z,0.00
2022-11-08T04:47:13.829Z,0.00
2022-11-08T04:48:13.740Z,0.00
2022-11-08T04:49:13.718Z,0.00
2022-11-08T04:50:13.705Z,0.00
2022-11-08T04:51:13.713Z,0.00
2022-11-08T04:52:13.684Z,0.00
2022-11-08T04:53:13.753Z,0.00
2022-11-08T04:54:13.673Z,0.00
2022-11-08T04:55:13.654Z,0.00
2022-11-08T04:56:13.642Z,0.00
2022-11-08T04:57:13.629Z,0.00
2022-11-08T04:58:13.617Z,0.00
2022-11-08T04:59:13.698Z,0.00
2022-11-08T05:00:13.597Z,0.00
2022-11-08T05:01:13.669Z,0.00
2022-11-08T05:02:13.732Z,0.00
2022-11-08T05:03:13.565Z,0.00
2022-11-08T05:04:13.553Z,0.00
2022-11-08T05:05:13.633Z,0.00
2022-11-08T05:06:13.531Z,0.00
2022-11-08T05:07:13.542Z,0.00
2022-11-08T05:08:13.513Z,0.00
2022-11-08T05:09:13.513Z,0.00
2022-11-08T05:10:13.505Z,0.00
2022-11-08T05:11:13.593Z,0.00
2022-11-08T05:12:13.467Z,0.00
2022-11-08T05:13:13.456Z,0.00
2022-11-08T05:14:13.446Z,0.00
2022-11-08T05:15:13.435Z,0.00
2022-11-08T05:16:13.461Z,0.00
2022-11-08T05:17:13.513Z,0.00
2022-11-08T05:18:13.399Z,0.00
2022-11-08T05:19:13.436Z,0.00
2022-11-08T05:20:13.393Z,0.00
2022-11-08T05:21:13.370Z,0.00
2022-11-08T05:22:13.369Z,0.00
2022-11-08T05:23:13.432Z,0.00
2022-11-08T05:24:13.334Z,0.00
2022-11-08T05:25:13.326Z,0.00
2022-11-08T05:26:13.324Z,0.00
2022-11-08T05:27:13.304Z,0.00
2022-11-08T05:28:13.293Z,0.00
2022-11-08T05:29:13.411Z,0.00
2022-11-08T05:30:13.298Z,0.00
2022-11-08T05:31:13.287Z,0.00
2022-11-08T05:32:13.290Z,0.00
2022-11-08T05:33:13.239Z,0.00
2022-11-08T05:34:13.250Z,0.00
2022-11-08T05:35:13.230Z,0.00
2022-11-08T05:36:13.213Z,4.00
2022-11-08T05:37:13.220Z,4.00
2022-11-08T05:38:13.194Z,0.00
2022-11-08T05:39:13.191Z,4.00
2022-11-08T05:40:13.166Z,4.00
2022-11-08T05:41:13.178Z,4.00
2022-11-08T05:42:13.149Z,4.00
2022-11-08T05:43:13.129Z,4.00
2022-11-08T05:44:13.115Z,4.00
2022-11-08T05:45:13.120Z,8.00
2022-11-08T05:46:13.121Z,8.00
2022-11-08T05:47:13.099Z,8.00
2022-11-08T05:48:13.071Z,12.00
2022-11-08T05:49:13.079Z,16.00
2022-11-08T05:50:18.230Z,20.00
2022-11-08T05:51:14.043Z,24.00
2022-11-08T05:52:13.044Z,28.00
2022-11-08T05:53:13.030Z,36.00
2022-11-08T05:54:13.011Z,40.00
2022-11-08T05:55:13.017Z,52.00
2022-11-08T05:56:12.985Z,60.00
2022-11-08T05:57:12.976Z,72.00
2022-11-08T05:58:12.974Z,84.00
2022-11-08T05:59:12.982Z,100.00
2022-11-08T06:00:12.950Z,120.00
2022-11-08T06:01:12.934Z,140.00
2022-11-08T06:02:13.062Z,164.00
2022-11-08T06:03:12.996Z,192.00
2022-11-08T06:04:12.896Z,228.00
2022-11-08T06:05:12.901Z,264.00
2022-11-08T06:06:12.882Z,300.00
2022-11-08T06:07:12.875Z,332.00
2022-11-08T06:08:12.865Z,372.00
2022-11-08T06:09:12.845Z,420.00
2022-11-08T06:10:12.835Z,472.00
2022-11-08T06:11:12.846Z,520.00
2022-11-08T06:12:13.819Z,564.00
2022-11-08T06:13:12.810Z,604.00
2022-11-08T06:14:13.453Z,640.00
2022-11-08T06:15:12.861Z,676.00
2022-11-08T06:16:12.766Z,716.00
2022-11-08T06:17:12.759Z,752.00
2022-11-08T06:18:12.864Z,788.00
2022-11-08T06:19:12.737Z,836.00
2022-11-08T06:20:12.734Z,892.00
2022-11-08T06:21:12.713Z,948.00
2022-11-08T06:22:12.718Z,1012.00
2022-11-08T06:23:12.801Z,1080.00
2022-11-08T06:24:12.678Z,1140.00
2022-11-08T06:25:12.671Z,1204.00
2022-11-08T06:26:12.657Z,1260.00
2022-11-08T06:27:12.664Z,1320.00
2022-11-08T06:28:12.654Z,1392.00
2022-11-08T06:29:12.714Z,1472.00
2022-11-08T06:30:12.624Z,1564.00
2022-11-08T06:31:12.611Z,1660.00
2022-11-08T06:32:12.595Z,1736.00
2022-11-08T06:33:12.590Z,1812.00
2022-11-08T06:34:12.584Z,1900.00
2022-11-08T06:35:12.659Z,2004.00
2022-11-08T06:36:12.574Z,2096.00
2022-11-08T06:37:12.539Z,2180.00
2022-11-08T06:38:12.526Z,2256.00
2022-11-08T06:39:12.519Z,2324.00
2022-11-08T06:40:12.513Z,2384.00
2022-11-08T06:41:12.608Z,2436.00
2022-11-08T06:42:12.482Z,2468.00
2022-11-08T06:43:17.948Z,2500.00
2022-11-08T06:44:13.460Z,2528.00
2022-11-08T06:45:12.462Z,2564.00
2022-11-08T06:46:12.438Z,2604.00
2022-11-08T06:47:12.468Z,2660.00
2022-11-08T06:48:12.422Z,2728.00
2022-11-08T06:49:12.409Z,2796.00
2022-11-08T06:50:12.395Z,2876.00
2022-11-08T06:51:12.397Z,2952.00
2022-11-08T06:52:12.372Z,3028.00
2022-11-08T06:53:12.404Z,3100.00
2022-11-08T06:54:16.907Z,3188.00
2022-11-08T06:55:13.341Z,3284.00
2022-11-08T06:56:12.345Z,3400.00
2022-11-08T06:57:12.321Z,3520.00
2022-11-08T06:58:12.423Z,3644.00
2022-11-08T06:59:12.317Z,3776.00
2022-11-08T07:00:12.284Z,3904.00
2022-11-08T07:01:12.375Z,4028.00
2022-11-08T07:02:12.381Z,4132.00
2022-11-08T07:03:12.383Z,4236.00
2022-11-08T07:04:12.306Z,4324.00
2022-11-08T07:05:12.231Z,4424.00
2022-11-08T07:06:12.221Z,4532.00
2022-11-08T07:07:12.218Z,4660.00
2022-11-08T07:08:12.195Z,4792.00
2022-11-08T07:09:12.187Z,4936.00
2022-11-08T07:10:12.229Z,5080.00
2022-11-08T07:11:12.181Z,5232.00
2022-11-08T07:12:12.154Z,5384.00
2022-11-08T07:13:12.147Z,5540.00
2022-11-08T07:14:12.143Z,5712.00
2022-11-08T07:15:12.139Z,5904.00
2022-11-08T07:16:12.197Z,6108.00
2022-11-08T07:17:12.100Z,6316.00
2022-11-08T07:18:12.342Z,6556.00
2022-11-08T07:19:12.077Z,6792.00
2022-11-08T07:20:12.064Z,7036.00
2022-11-08T07:21:12.063Z,7308.00
2022-11-08T07:22:12.130Z,7612.00
2022-11-08T07:23:12.033Z,7916.00
2022-11-08T07:24:12.019Z,8232.00
2022-11-08T07:25:12.011Z,8548.00
2022-11-08T07:26:12.011Z,8824.00
2022-11-08T07:27:11.988Z,9056.00
2022-11-08T07:28:12.075Z,9260.00
2022-11-08T07:29:15.828Z,9428.00
2022-11-08T07:30:11.963Z,9564.00
2022-11-08T07:31:11.968Z,9692.00
2022-11-08T07:32:11.932Z,9788.00
2022-11-08T07:33:11.942Z,9888.00
2022-11-08T07:34:11.952Z,9956.00
2022-11-08T07:35:11.899Z,10012.00
2022-11-08T07:36:11.888Z,10052.00
2022-11-08T07:37:11.891Z,10100.00
2022-11-08T07:38:11.874Z,10160.00
2022-11-08T07:39:11.867Z,10252.00
2022-11-08T07:40:11.937Z,10348.00
2022-11-08T07:41:11.835Z,10444.00
2022-11-08T07:42:11.836Z,10564.00
2022-11-08T07:43:13.123Z,10692.00
2022-11-08T07:44:11.800Z,10840.00
2022-11-08T07:45:11.790Z,11016.00
2022-11-08T07:46:11.899Z,11184.00
2022-11-08T07:47:11.788Z,11344.00
2022-11-08T07:48:12.811Z,11516.00
2022-11-08T07:49:11.746Z,11692.00
2022-11-08T07:50:14.278Z,11892.00
2022-11-08T07:51:12.724Z,12060.00
2022-11-08T07:52:11.828Z,12196.00
2022-11-08T07:53:11.703Z,12272.00
2022-11-08T07:54:11.702Z,12356.00
2022-11-08T07:55:11.682Z,12456.00
2022-11-08T07:56:11.679Z,12548.00
2022-11-08T07:57:11.658Z,12612.00
2022-11-08T07:58:11.743Z,12664.00
2022-11-08T07:59:11.636Z,12688.00
2022-11-08T08:00:11.625Z,12700.00
2022-11-08T08:01:11.720Z,12720.00
2022-11-08T08:02:11.677Z,12708.00
2022-11-08T08:03:11.698Z,12708.00
2022-11-08T08:04:11.649Z,12744.00
2022-11-08T08:05:11.571Z,12844.00
2022-11-08T08:06:11.560Z,13032.00
2022-11-08T08:07:11.564Z,13268.00
2022-11-08T08:08:11.539Z,13512.00
2022-11-08T08:09:11.530Z,13700.00
2022-11-08T08:10:11.584Z,13916.00
2022-11-08T08:11:11.506Z,14180.00
2022-11-08T08:12:11.494Z,14420.00
2022-11-08T08:13:11.501Z,14648.00
2022-11-08T08:14:11.472Z,14980.00
2022-11-08T08:15:11.462Z,15416.00
2022-11-08T08:16:11.541Z,15828.00
2022-11-08T08:17:11.441Z,16168.00
2022-11-08T08:18:11.438Z,16544.00
2022-11-08T08:19:11.463Z,16992.00
2022-11-08T08:20:11.406Z,17376.00
2022-11-08T08:21:11.406Z,18112.00
2022-11-08T08:22:11.418Z,18624.00
2022-11-08T08:23:11.374Z,18176.00
2022-11-08T08:24:11.364Z,17472.00
2022-11-08T08:25:11.368Z,17856.00
2022-11-08T08:26:11.340Z,18336.00
2022-11-08T08:27:11.333Z,18880.00
2022-11-08T08:28:11.366Z,16288.00
2022-11-08T08:29:11.310Z,17216.00
2022-11-08T08:30:11.306Z,18016.00
2022-11-08T08:31:11.287Z,18208.00
2022-11-08T08:32:11.278Z,20320.00
2022-11-08T08:34:12.255Z,23552.00
2022-11-08T08:35:11.281Z,22752.00
2022-11-08T08:36:11.232Z,24704.00
2022-11-08T08:37:11.227Z,25312.00
2022-11-08T08:38:11.212Z,26080.00
2022-11-08T08:39:11.239Z,26592.00
2022-11-08T08:40:11.193Z,28544.00
2022-11-08T08:41:11.193Z,35200.00
2022-11-08T08:42:11.169Z,39456.00
2022-11-08T08:43:11.179Z,41440.00
2022-11-08T08:44:11.258Z,45504.00
2022-11-08T08:45:14.957Z,49856.00
2022-11-08T08:46:11.194Z,53120.00
2022-11-08T08:47:11.123Z,52768.00
2022-11-08T08:48:11.115Z,49248.00
2022-11-08T08:49:11.087Z,53856.00
2022-11-08T08:50:11.090Z,50880.00
2022-11-08T08:51:11.085Z,51040.00
2022-11-08T08:52:11.113Z,55328.00
2022-11-08T08:53:11.054Z,52448.00
2022-11-08T08:54:11.040Z,58496.00
2022-11-08T08:55:11.020Z,59392.00
2022-11-08T08:56:11.013Z,56384.00
2022-11-08T08:57:10.998Z,53664.00
2022-11-08T08:58:11.076Z,39360.00
2022-11-08T09:02:11.944Z,39040.00
2022-11-08T09:03:10.944Z,52608.00
2022-11-08T09:04:10.990Z,55808.00
2022-11-08T09:05:10.910Z,57376.00
2022-11-08T09:06:10.909Z,53600.00
2022-11-08T09:07:10.950Z,51872.00
2022-11-08T09:08:10.879Z,58048.00
2022-11-08T09:09:10.879Z,65152.00
2022-11-08T09:10:10.932Z,67584.00
2022-11-08T09:11:10.859Z,70112.00
2022-11-08T09:12:13.564Z,64832.00
2022-11-08T09:13:10.823Z,66144.00
2022-11-08T09:14:10.812Z,67584.00
2022-11-08T09:15:10.803Z,63968.00
2022-11-08T09:16:10.868Z,61312.00
2022-11-08T09:17:10.783Z,63520.00
2022-11-08T09:18:10.890Z,68288.00
2022-11-08T09:19:10.758Z,63424.00
2022-11-08T09:20:10.749Z,56832.00
2022-11-08T09:21:10.740Z,59680.00
2022-11-08T09:22:10.990Z,61888.00
2022-11-08T09:23:10.736Z,62112.00
2022-11-08T09:24:10.707Z,71360.00
2022-11-08T09:25:10.696Z,77952.00
2022-11-08T09:26:10.684Z,83744.00
2022-11-08T09:27:10.672Z,85600.00
2022-11-08T09:28:10.727Z,91776.00
2022-11-08T09:29:10.651Z,88352.00
2022-11-08T09:30:10.642Z,79456.00
2022-11-08T09:31:10.628Z,78336.00
2022-11-08T09:32:10.620Z,80768.00
2022-11-08T09:33:10.641Z,76096.00
2022-11-08T09:34:10.682Z,77056.00
2022-11-08T09:35:10.585Z,83392.00
2022-11-08T09:36:10.575Z,83552.00
2022-11-08T09:37:10.576Z,78560.00
2022-11-08T09:38:10.554Z,74848.00
2022-11-08T09:39:10.560Z,77664.00
2022-11-08T09:40:10.632Z,78816.00
2022-11-08T09:41:10.517Z,78624.00
2022-11-08T09:42:10.516Z,72480.00
2022-11-08T09:43:10.534Z,60256.00
2022-11-08T09:44:10.486Z,67648.00
2022-11-08T09:45:10.490Z,69280.00
2022-11-08T09:46:10.509Z,67360.00
2022-11-08T09:47:10.450Z,60224.00
2022-11-08T09:48:10.438Z,33824.00
2022-11-08T09:49:10.438Z,27456.00
2022-11-08T09:50:10.426Z,60800.00
2022-11-08T09:51:10.427Z,73888.00
2022-11-08T09:52:10.410Z,78240.00
2022-11-08T09:53:10.383Z,81792.00
2022-11-08T09:54:10.382Z,85632.00
2022-11-08T09:55:10.379Z,85632.00
2022-11-08T09:56:10.354Z,85952.00
2022-11-08T09:57:10.338Z,83456.00
2022-11-08T09:58:10.363Z,83520.00
2022-11-08T09:59:10.415Z,82432.00
2022-11-08T10:00:10.315Z,84512.00
2022-11-08T10:01:10.295Z,82592.00
2022-11-08T10:02:10.359Z,82432.00
2022-11-08T10:03:10.274Z,82752.00
2022-11-08T10:04:10.321Z,84736.00
2022-11-08T10:05:10.266Z,83456.00
2022-11-08T10:06:10.250Z,83680.00
2022-11-08T10:07:10.314Z,80160.00
2022-11-08T10:08:10.219Z,79648.00
2022-11-08T10:09:10.211Z,80160.00
2022-11-08T10:10:10.261Z,77952.00
2022-11-08T10:11:10.203Z,86368.00
2022-11-08T10:12:10.172Z,88832.00
2022-11-08T10:13:10.172Z,88672.00
2022-11-08T10:14:10.153Z,83872.00
2022-11-08T10:15:10.257Z,82912.00
2022-11-08T10:16:10.129Z,74656.00
2022-11-08T10:17:10.119Z,71200.00
2022-11-08T10:18:10.108Z,76128.00
2022-11-08T10:19:10.098Z,77920.00
2022-11-08T10:20:10.087Z,76736.00
2022-11-08T10:21:10.239Z,78016.00
2022-11-08T10:22:10.064Z,87680.00
2022-11-08T10:23:10.054Z,90464.00
2022-11-08T10:24:10.050Z,89600.00
2022-11-08T10:25:10.032Z,90656.00
2022-11-08T10:26:10.019Z,91744.00
2022-11-08T10:27:10.101Z,91072.00
2022-11-08T10:28:09.997Z,89600.00
2022-11-08T10:29:09.990Z,89120.00
2022-11-08T10:30:09.977Z,92608.00
2022-11-08T10:31:09.977Z,93120.00
2022-11-08T10:32:09.954Z,84416.00
2022-11-08T10:33:09.975Z,88544.00
2022-11-08T10:34:09.954Z,83840.00
2022-11-08T10:35:09.923Z,80544.00
2022-11-08T10:36:09.910Z,75584.00
2022-11-08T10:37:09.900Z,73888.00
2022-11-08T10:38:09.888Z,77472.00
2022-11-08T10:39:09.913Z,80000.00
2022-11-08T10:40:09.876Z,78368.00
2022-11-08T10:41:09.857Z,78336.00
2022-11-08T10:42:09.844Z,76896.00
2022-11-08T10:43:09.854Z,76672.00
2022-11-08T10:44:09.822Z,75840.00
2022-11-08T10:45:09.831Z,77600.00
2022-11-08T10:46:09.813Z,77088.00
2022-11-08T10:47:09.791Z,76896.00
2022-11-08T10:48:09.789Z,74080.00
2022-11-08T10:49:09.771Z,71424.00
2022-11-08T10:50:09.757Z,71104.00
2022-11-08T10:51:09.811Z,69600.00
2022-11-08T10:52:09.750Z,70816.00
2022-11-08T10:53:09.727Z,76160.00
2022-11-08T10:54:09.715Z,77216.00
2022-11-08T10:55:09.707Z,80864.00
2022-11-08T10:56:09.703Z,85152.00
2022-11-08T10:57:09.735Z,83680.00
2022-11-08T10:58:09.668Z,86368.00
2022-11-08T10:59:09.679Z,86976.00
2022-11-08T11:00:09.648Z,85088.00
2022-11-08T11:01:09.641Z,85568.00
2022-11-08T11:02:09.781Z,87104.00
2022-11-08T11:03:09.718Z,89568.00
2022-11-08T11:04:09.606Z,88064.00
2022-11-08T11:05:09.599Z,90240.00
2022-11-08T11:06:09.582Z,88448.00
2022-11-08T11:07:09.624Z,90464.00
2022-11-08T11:08:09.663Z,90336.00
2022-11-08T11:09:09.610Z,92480.00
2022-11-08T11:10:09.540Z,94688.00
2022-11-08T11:11:09.528Z,96480.00
2022-11-08T11:12:09.514Z,89952.00
2022-11-08T11:13:09.508Z,77728.00
2022-11-08T11:14:11.768Z,70272.00
2022-11-08T11:15:10.533Z,68800.00
2022-11-08T11:16:09.584Z,82912.00
2022-11-08T11:17:09.463Z,89344.00
2022-11-08T11:18:09.470Z,90144.00
2022-11-08T11:19:09.442Z,90496.00
2022-11-08T11:20:09.428Z,88800.00
2022-11-08T11:21:09.489Z,85728.00
2022-11-08T11:22:09.420Z,81120.00
2022-11-08T11:23:09.399Z,78688.00
2022-11-08T11:24:09.396Z,76576.00
2022-11-08T11:25:09.377Z,77664.00
2022-11-08T11:26:09.362Z,82624.00
2022-11-08T11:27:09.411Z,84672.00
2022-11-08T11:28:09.350Z,86816.00
2022-11-08T11:29:09.453Z,88096.00
2022-11-08T11:30:11.921Z,85536.00
2022-11-08T11:31:09.330Z,82080.00
2022-11-08T11:32:09.297Z,82592.00
2022-11-08T11:33:09.358Z,79680.00
2022-11-08T11:34:09.279Z,76544.00
2022-11-08T11:35:09.276Z,74048.00
2022-11-08T11:36:13.311Z,72960.00
2022-11-08T11:37:09.245Z,75680.00
2022-11-08T11:38:09.241Z,76928.00
2022-11-08T11:39:09.333Z,78400.00
2022-11-08T11:40:09.228Z,76992.00
2022-11-08T11:41:11.089Z,74944.00
2022-11-08T11:42:24.413Z,74368.00
2022-11-08T11:43:10.181Z,74080.00
2022-11-08T11:44:09.167Z,75104.00
2022-11-08T11:45:09.199Z,75712.00
2022-11-08T11:46:09.154Z,78624.00
2022-11-08T11:47:09.152Z,78816.00
2022-11-08T11:48:09.122Z,79552.00
2022-11-08T11:49:09.123Z,78816.00
2022-11-08T11:50:09.114Z,79616.00
2022-11-08T11:51:09.172Z,76640.00
2022-11-08T11:52:09.079Z,77120.00
2022-11-08T11:53:09.068Z,77856.00
2022-11-08T11:54:09.056Z,76064.00
2022-11-08T11:55:09.047Z,75616.00
2022-11-08T11:56:09.046Z,69984.00
2022-11-08T11:57:09.116Z,66624.00
2022-11-08T11:58:09.009Z,65792.00
2022-11-08T11:59:09.002Z,65920.00
2022-11-08T12:00:08.997Z,65664.00
2022-11-08T12:01:14.048Z,66912.00
2022-11-08T12:02:09.995Z,69920.00
2022-11-08T12:03:09.116Z,70432.00
2022-11-08T12:04:08.951Z,72000.00
2022-11-08T12:05:08.936Z,72448.00
2022-11-08T12:06:08.923Z,72960.00
2022-11-08T12:07:08.941Z,74112.00
2022-11-08T12:08:08.912Z,71136.00
2022-11-08T12:09:08.916Z,69088.00
2022-11-08T12:10:08.882Z,67840.00
2022-11-08T12:11:08.868Z,66080.00
2022-11-08T12:12:08.867Z,65312.00
2022-11-08T12:13:08.857Z,66752.00
2022-11-08T12:14:08.844Z,70176.00
2022-11-08T12:15:08.885Z,68704.00
2022-11-08T12:16:08.812Z,65312.00
2022-11-08T12:17:08.803Z,63360.00
2022-11-08T12:18:08.800Z,63744.00
2022-11-08T12:19:08.800Z,64544.00
2022-11-08T12:20:08.766Z,63168.00
2022-11-08T12:21:08.810Z,63264.00
2022-11-08T12:22:08.747Z,63552.00
2022-11-08T12:23:08.736Z,63712.00
2022-11-08T12:24:08.738Z,61280.00
2022-11-08T12:25:08.715Z,58208.00
2022-11-08T12:26:08.699Z,60064.00
2022-11-08T12:27:08.749Z,59808.00
2022-11-08T12:28:08.681Z,56736.00
2022-11-08T12:29:08.688Z,53792.00
2022-11-08T12:30:08.661Z,53760.00
2022-11-08T12:31:08.647Z,52960.00
2022-11-08T12:32:08.633Z,52160.00
2022-11-08T12:33:08.688Z,51456.00